Time;durP1;ratioP1;P1;durP2;ratioP2;P2;SDS_P1;SDS_P2;PMS_P1;PMS_P2;Temp;Humidity;BMP_temperature;BMP_pressure;BME280_temperature;BME280_humidity;BME280_pressure;Samples;Min_cycle;Max_cycle;Signal;HPM_P1;HPM_P2
2021/06/30 00:01:18;;;;;;;1.35;1.30;;;18.00;99.90;;;;;;5094175;28;20429;-74
2021/06/30 00:03:45;;;;;;;1.42;1.25;;;18.00;99.90;;;;;;5094219;28;20198;-76
2021/06/30 00:06:12;;;;;;;2.53;1.50;;;17.90;99.90;;;;;;5094408;28;20218;-76
2021/06/30 00:08:39;;;;;;;1.40;1.30;;;17.90;99.90;;;;;;5096460;28;20202;-76
2021/06/30 00:11:06;;;;;;;1.35;1.23;;;17.90;99.90;;;;;;5095928;28;20202;-75
2021/06/30 00:13:33;;;;;;;1.50;1.38;;;17.90;99.90;;;;;;5096194;28;20237;-76
2021/06/30 00:16:01;;;;;;;1.05;1.05;;;17.90;99.90;;;;;;5096042;28;20301;-76
2021/06/30 00:18:28;;;;;;;0.93;0.93;;;18.00;99.90;;;;;;5096741;28;20241;-76
2021/06/30 00:20:55;;;;;;;1.60;1.50;;;18.00;99.90;;;;;;5096327;28;20293;-75
2021/06/30 00:23:22;;;;;;;2.88;1.42;;;18.00;99.90;;;;;;5096578;28;20296;-76
2021/06/30 00:25:49;;;;;;;2.10;1.20;;;18.00;99.90;;;;;;5095032;28;20333;-75
2021/06/30 00:28:16;;;;;;;1.85;1.63;;;18.10;99.90;;;;;;5096278;28;20198;-76
2021/06/30 00:30:42;;;;;;;0.90;0.90;;;18.10;99.90;;;;;;5096130;28;20290;-77
2021/06/30 00:33:11;;;;;;;1.02;0.98;;;18.10;99.90;;;;;;5096425;28;20585;-77
2021/06/30 00:35:38;;;;;;;1.67;1.40;;;18.10;99.90;;;;;;5096078;28;20547;-76
2021/06/30 00:38:04;;;;;;;1.30;1.00;;;18.20;99.90;;;;;;5095094;28;20301;-76
2021/06/30 00:40:32;;;;;;;1.00;1.00;;;18.20;99.90;;;;;;5095009;28;20293;-77
2021/06/30 00:42:59;;;;;;;1.35;1.20;;;18.20;99.90;;;;;;5094854;28;20619;-76
2021/06/30 00:45:26;;;;;;;1.25;0.98;;;18.20;99.90;;;;;;5094999;28;20253;-76
2021/06/30 00:47:53;;;;;;;1.40;1.15;;;18.30;99.90;;;;;;5095268;28;20289;-76
2021/06/30 00:50:21;;;;;;;1.00;1.00;;;18.30;99.90;;;;;;5094935;28;20293;-76
2021/06/30 00:52:48;;;;;;;0.70;0.70;;;18.20;99.90;;;;;;5094676;28;20241;-76
2021/06/30 00:55:16;;;;;;;0.88;0.85;;;18.20;99.90;;;;;;5094938;28;20623;-76
2021/06/30 00:57:44;;;;;;;0.90;0.90;;;18.20;99.90;;;;;;5095024;28;20571;-77
2021/06/30 01:00:12;;;;;;;0.60;0.60;;;18.20;99.90;;;;;;5094974;28;20202;-76
2021/06/30 01:02:39;;;;;;;0.85;0.85;;;18.20;99.90;;;;;;5094946;28;20292;-76
2021/06/30 01:05:06;;;;;;;0.80;0.80;;;18.30;99.90;;;;;;5095152;28;20713;-76
2021/06/30 01:07:34;;;;;;;1.15;1.10;;;18.20;99.90;;;;;;5094411;28;20254;-76
2021/06/30 01:10:01;;;;;;;1.13;1.10;;;18.20;99.90;;;;;;5094327;28;20238;-76
2021/06/30 01:12:28;;;;;;;0.93;0.70;;;18.20;99.90;;;;;;5094788;28;20202;-77
2021/06/30 01:14:55;;;;;;;1.17;1.08;;;18.10;99.90;;;;;;5094878;28;20288;-76
2021/06/30 01:17:22;;;;;;;1.10;1.10;;;18.00;99.90;;;;;;5094344;28;20309;-76
2021/06/30 01:19:48;;;;;;;1.50;0.77;;;18.00;99.90;;;;;;5093945;28;20252;-76
2021/06/30 01:22:15;;;;;;;1.10;1.00;;;18.00;99.90;;;;;;5094223;28;20201;-76
2021/06/30 01:24:49;;;;;;;1.05;0.95;;;18.00;99.90;;;;;;5094455;28;20301;-76
2021/06/30 01:27:18;;;;;;;1.27;1.17;;;18.00;99.90;;;;;;5094808;28;20322;-76
2021/06/30 01:29:45;;;;;;;1.40;1.15;;;18.00;99.90;;;;;;5094536;28;20305;-76
2021/06/30 01:32:12;;;;;;;0.77;0.77;;;17.90;99.90;;;;;;5094800;28;20206;-76
2021/06/30 01:34:39;;;;;;;1.30;1.20;;;17.90;99.90;;;;;;5094784;28;20233;-76
2021/06/30 01:37:06;;;;;;;0.90;0.90;;;17.80;99.90;;;;;;5095076;28;20305;-77
2021/06/30 01:39:33;;;;;;;1.30;0.90;;;17.80;99.90;;;;;;5094896;28;20225;-76
2021/06/30 01:42:02;;;;;;;0.80;0.80;;;17.80;99.90;;;;;;5094304;28;20293;-77
2021/06/30 01:44:28;;;;;;;1.35;1.00;;;17.70;99.90;;;;;;5094885;28;20202;-76
2021/06/30 01:46:55;;;;;;;1.88;0.98;;;17.60;99.90;;;;;;5094320;28;20312;-76
2021/06/30 01:49:23;;;;;;;1.17;1.05;;;17.60;99.90;;;;;;5094228;28;20212;-76
2021/06/30 01:51:49;;;;;;;0.85;0.70;;;17.50;99.90;;;;;;5094331;28;20288;-76
2021/06/30 01:54:19;;;;;;;0.70;0.70;;;17.50;99.90;;;;;;5094548;28;20198;-76
2021/06/30 01:56:49;;;;;;;0.90;0.90;;;17.50;99.90;;;;;;5094117;28;20218;-76
2021/06/30 01:59:17;;;;;;;0.88;0.88;;;17.50;99.90;;;;;;5094867;28;20293;-76
2021/06/30 02:01:44;;;;;;;1.05;0.73;;;17.50;99.90;;;;;;5093480;28;20728;-76
2021/06/30 02:04:12;;;;;;;0.63;0.63;;;17.40;99.90;;;;;;5094076;28;20301;-76
2021/06/30 02:06:40;;;;;;;0.80;0.80;;;17.30;99.90;;;;;;5093945;28;20315;-76
2021/06/30 02:09:09;;;;;;;0.98;0.80;;;17.20;99.90;;;;;;5093933;28;20296;-76
2021/06/30 02:11:36;;;;;;;0.70;0.70;;;17.20;99.90;;;;;;5093290;28;20667;-76
2021/06/30 02:14:04;;;;;;;0.70;0.68;;;17.20;99.90;;;;;;5093588;28;20297;-76
2021/06/30 02:16:33;;;;;;;1.08;0.93;;;17.20;99.90;;;;;;5094098;28;20218;-76
2021/06/30 02:19:04;;;;;;;0.68;0.68;;;17.20;99.90;;;;;;5094314;28;20208;-76
2021/06/30 02:21:31;;;;;;;0.90;0.70;;;17.20;99.90;;;;;;5093760;28;20201;-76
2021/06/30 02:23:58;;;;;;;0.57;0.57;;;17.10;99.90;;;;;;5094102;28;20209;-76
2021/06/30 02:26:27;;;;;;;0.80;0.80;;;17.00;99.90;;;;;;5093814;28;20683;-76
2021/06/30 02:28:54;;;;;;;0.57;0.57;;;16.90;99.90;;;;;;5093394;28;20249;-76
2021/06/30 02:31:20;;;;;;;0.75;0.70;;;16.80;99.90;;;;;;5093398;28;20289;-76
2021/06/30 02:33:49;;;;;;;1.45;0.70;;;16.80;99.90;;;;;;5093460;28;20728;-77
2021/06/30 02:36:16;;;;;;;0.60;0.60;;;16.80;99.90;;;;;;5093447;28;20228;-77
2021/06/30 02:38:43;;;;;;;0.55;0.55;;;16.70;99.90;;;;;;5094244;28;20257;-76
2021/06/30 02:41:10;;;;;;;0.50;0.40;;;16.60;99.90;;;;;;5093219;28;20517;-76
2021/06/30 02:43:37;;;;;;;0.68;0.60;;;16.60;99.90;;;;;;5093517;28;20206;-76
2021/06/30 02:46:04;;;;;;;0.50;0.50;;;16.50;99.90;;;;;;5093157;28;20235;-76
2021/06/30 02:48:31;;;;;;;0.40;0.30;;;16.50;99.90;;;;;;5093814;28;20228;-76
2021/06/30 02:50:59;;;;;;;0.52;0.52;;;16.50;99.90;;;;;;5096703;28;20655;-76
2021/06/30 02:53:26;;;;;;;0.40;0.40;;;16.40;99.90;;;;;;5097461;28;20718;-77
2021/06/30 02:55:53;;;;;;;0.70;0.50;;;16.30;99.90;;;;;;5096789;28;20308;-76
2021/06/30 02:58:20;;;;;;;0.40;0.40;;;16.30;99.90;;;;;;5097432;28;20584;-76
2021/06/30 03:00:47;;;;;;;0.40;0.40;;;16.30;99.90;;;;;;5096918;28;20205;-76
2021/06/30 03:03:14;;;;;;;0.30;0.30;;;16.30;99.90;;;;;;5097217;28;20296;-76
2021/06/30 03:05:40;;;;;;;0.40;0.40;;;16.20;99.90;;;;;;5096918;28;20286;-76
2021/06/30 03:08:09;;;;;;;0.50;0.40;;;16.20;99.90;;;;;;5097725;28;20202;-76
2021/06/30 03:10:35;;;;;;;0.30;0.30;;;16.20;99.90;;;;;;5096888;28;20300;-76
2021/06/30 03:13:02;;;;;;;0.40;0.40;;;16.20;99.90;;;;;;5097154;28;20295;-76
2021/06/30 03:15:29;;;;;;;0.45;0.40;;;16.10;99.90;;;;;;5096915;28;20292;-76
2021/06/30 03:17:56;;;;;;;0.32;0.30;;;16.20;99.90;;;;;;5097246;28;20204;-76
2021/06/30 03:20:23;;;;;;;1.42;1.20;;;16.10;99.90;;;;;;5096695;28;20207;-76
2021/06/30 03:22:50;;;;;;;0.30;0.30;;;16.10;99.90;;;;;;5096618;28;20291;-76
2021/06/30 03:25:18;;;;;;;3.88;2.70;;;16.10;99.90;;;;;;5096763;28;20201;-76
2021/06/30 03:27:45;;;;;;;1.50;0.75;;;16.20;99.90;;;;;;5097120;28;20233;-76
2021/06/30 03:30:13;;;;;;;0.50;0.50;;;16.20;99.90;;;;;;5096570;28;20686;-76
2021/06/30 03:32:40;;;;;;;0.50;0.35;;;16.20;99.90;;;;;;5097341;28;20285;-76
2021/06/30 03:35:08;;;;;;;0.85;0.50;;;16.20;99.90;;;;;;5097470;28;20289;-77
2021/06/30 03:37:35;;;;;;;0.50;0.50;;;16.10;99.90;;;;;;5097088;28;20570;-76
2021/06/30 03:40:02;;;;;;;0.65;0.50;;;16.10;99.90;;;;;;5096651;28;20638;-76
2021/06/30 03:42:31;;;;;;;0.40;0.40;;;16.10;99.90;;;;;;5096920;28;20312;-76
2021/06/30 03:44:58;;;;;;;0.40;0.40;;;16.00;99.90;;;;;;5097175;28;20559;-76
2021/06/30 03:47:25;;;;;;;0.70;0.40;;;16.00;99.90;;;;;;5097095;28;20412;-76
2021/06/30 03:49:52;;;;;;;0.55;0.40;;;16.10;99.90;;;;;;5097022;28;20554;-77
2021/06/30 03:52:19;;;;;;;0.65;0.60;;;16.10;99.90;;;;;;5097967;28;20292;-76
2021/06/30 03:54:47;;;;;;;0.43;0.40;;;16.00;99.90;;;;;;5097135;28;20305;-76
2021/06/30 03:57:14;;;;;;;0.50;0.50;;;16.00;99.90;;;;;;5098224;28;20222;-76
2021/06/30 03:59:42;;;;;;;0.65;0.55;;;16.10;99.90;;;;;;5097174;28;20300;-76
2021/06/30 04:02:09;;;;;;;0.57;0.45;;;16.10;99.90;;;;;;5097200;28;20703;-76
2021/06/30 04:04:36;;;;;;;1.00;0.90;;;16.10;99.90;;;;;;5097453;28;20244;-76
2021/06/30 04:07:03;;;;;;;0.30;0.30;;;16.10;99.90;;;;;;5097810;28;20264;-76
2021/06/30 04:09:30;;;;;;;0.57;0.57;;;16.10;99.90;;;;;;5096994;28;20206;-76
2021/06/30 04:11:57;;;;;;;0.82;0.57;;;16.10;99.90;;;;;;5096618;28;20208;-76
2021/06/30 04:14:24;;;;;;;0.45;0.45;;;16.10;99.90;;;;;;5095880;28;20204;-76
2021/06/30 04:16:52;;;;;;;0.50;0.50;;;16.10;99.90;;;;;;5095379;28;20713;-76
2021/06/30 04:19:19;;;;;;;0.63;0.50;;;16.10;99.90;;;;;;5095174;28;20243;-76
2021/06/30 04:21:46;;;;;;;0.32;0.32;;;16.10;99.90;;;;;;5096487;28;20620;-76
2021/06/30 04:24:13;;;;;;;4.15;3.20;;;16.20;99.90;;;;;;5095809;28;20240;-76
2021/06/30 04:26:40;;;;;;;0.60;0.50;;;16.10;99.90;;;;;;5094871;28;20228;-76
2021/06/30 04:29:07;;;;;;;0.50;0.30;;;16.10;99.90;;;;;;5095881;28;20233;-76
2021/06/30 04:31:34;;;;;;;0.40;0.40;;;16.10;99.90;;;;;;5094633;28;20201;-76
2021/06/30 04:34:02;;;;;;;0.50;0.30;;;16.20;99.90;;;;;;5095133;28;20311;-76
2021/06/30 04:36:29;;;;;;;0.50;0.50;;;16.20;99.90;;;;;;5094611;28;20569;-76
2021/06/30 04:38:56;;;;;;;0.60;0.60;;;16.20;99.90;;;;;;5094996;28;20677;-76
2021/06/30 04:41:23;;;;;;;0.50;0.50;;;16.20;99.90;;;;;;5094377;28;20217;-76
2021/06/30 04:43:50;;;;;;;0.65;0.65;;;16.20;99.90;;;;;;5095246;28;20309;-76
2021/06/30 04:46:16;;;;;;;0.70;0.60;;;16.20;99.90;;;;;;5094599;28;20243;-76
2021/06/30 04:48:43;;;;;;;0.55;0.55;;;16.20;99.90;;;;;;5095056;28;20209;-76
2021/06/30 04:51:11;;;;;;;0.40;0.40;;;16.20;99.90;;;;;;5094733;28;20210;-76
2021/06/30 04:53:38;;;;;;;0.70;0.40;;;16.30;99.90;;;;;;5096280;28;20205;-76
2021/06/30 04:56:05;;;;;;;0.50;0.40;;;16.30;99.90;;;;;;5095204;28;20232;-76
2021/06/30 04:58:32;;;;;;;0.50;0.50;;;16.30;99.90;;;;;;5094761;28;20292;-76
2021/06/30 05:00:59;;;;;;;0.50;0.50;;;16.40;99.90;;;;;;5094549;28;20297;-76
2021/06/30 05:03:27;;;;;;;2.40;1.70;;;16.60;99.90;;;;;;5094791;28;20303;-76
2021/06/30 05:05:55;;;;;;;1.73;1.63;;;16.70;99.90;;;;;;5094538;28;20336;-76
2021/06/30 05:08:23;;;;;;;0.93;0.60;;;16.70;99.90;;;;;;5095150;28;20201;-76
2021/06/30 05:10:51;;;;;;;5.20;3.20;;;16.70;99.90;;;;;;5094248;28;20293;-76
2021/06/30 05:13:18;;;;;;;2.25;1.35;;;16.70;99.90;;;;;;5094107;28;20599;-77
2021/06/30 05:15:45;;;;;;;0.55;0.55;;;16.80;99.90;;;;;;5094415;28;20225;-76
2021/06/30 05:18:12;;;;;;;0.77;0.47;;;16.80;99.90;;;;;;5094627;28;20206;-76
2021/06/30 05:20:39;;;;;;;0.43;0.43;;;16.70;99.90;;;;;;5094345;28;20734;-76
2021/06/30 05:23:06;;;;;;;0.50;0.50;;;16.80;99.90;;;;;;5094752;28;20231;-76
2021/06/30 05:25:34;;;;;;;0.60;0.60;;;16.80;99.90;;;;;;5094511;28;20234;-76
2021/06/30 05:28:01;;;;;;;0.60;0.60;;;16.80;99.90;;;;;;5094194;28;20278;-76
2021/06/30 05:30:28;;;;;;;0.70;0.50;;;16.90;99.90;;;;;;5093845;28;20208;-77
2021/06/30 05:32:55;;;;;;;0.73;0.73;;;17.00;99.90;;;;;;5094310;28;20284;-76
2021/06/30 05:35:22;;;;;;;0.65;0.60;;;17.00;99.90;;;;;;5094253;28;20208;-76
2021/06/30 05:37:49;;;;;;;0.70;0.65;;;17.00;99.90;;;;;;5095416;28;20289;-76
2021/06/30 05:40:16;;;;;;;0.60;0.60;;;17.00;99.90;;;;;;5094610;28;20213;-76
2021/06/30 05:42:44;;;;;;;1.00;0.55;;;17.10;99.90;;;;;;5095231;28;20210;-76
2021/06/30 05:45:15;;;;;;;0.50;0.50;;;17.10;99.90;;;;;;5095820;28;20296;-76
2021/06/30 05:47:43;;;;;;;0.50;0.50;;;17.20;99.90;;;;;;5096135;28;20308;-76
2021/06/30 05:50:11;;;;;;;0.73;0.73;;;17.10;99.90;;;;;;5095598;28;20198;-76
2021/06/30 05:52:38;;;;;;;0.88;0.55;;;17.10;99.90;;;;;;5095670;28;20198;-76
2021/06/30 05:55:06;;;;;;;0.60;0.60;;;17.10;99.90;;;;;;5095946;28;20593;-76
2021/06/30 05:57:35;;;;;;;4.80;0.80;;;17.10;99.90;;;;;;5095634;28;20244;-76
2021/06/30 06:00:07;;;;;;;0.93;0.93;;;17.10;99.90;;;;;;5095696;28;20232;-76
2021/06/30 06:02:34;;;;;;;0.70;0.70;;;17.10;99.90;;;;;;5096216;28;20288;-76
2021/06/30 06:05:00;;;;;;;0.88;0.75;;;17.10;99.90;;;;;;5095305;28;20233;-76
2021/06/30 06:07:27;;;;;;;0.45;0.40;;;17.20;99.90;;;;;;5093960;28;20224;-76
2021/06/30 06:09:54;;;;;;;5.47;3.65;;;17.30;99.90;;;;;;5093713;28;20601;-77
2021/06/30 06:12:21;;;;;;;1.63;0.80;;;17.30;99.90;;;;;;5093961;28;20293;-76
2021/06/30 06:14:48;;;;;;;1.15;0.93;;;17.40;99.90;;;;;;5094091;28;20230;-76
2021/06/30 06:17:16;;;;;;;0.90;0.90;;;17.50;99.90;;;;;;5093873;28;20617;-76
2021/06/30 06:19:43;;;;;;;1.20;0.60;;;17.50;99.90;;;;;;5093940;28;20290;-76
2021/06/30 06:22:09;;;;;;;0.73;0.70;;;17.60;99.90;;;;;;5093442;28;20202;-76
2021/06/30 06:24:36;;;;;;;0.77;0.70;;;17.60;99.90;;;;;;5095351;28;20213;-76
2021/06/30 06:27:04;;;;;;;1.67;0.55;;;17.60;99.90;;;;;;5098197;28;20312;-76
2021/06/30 06:29:31;;;;;;;1.02;0.55;;;17.70;99.90;;;;;;5097648;28;20236;-77
2021/06/30 06:32:00;;;;;;;0.65;0.60;;;17.80;99.90;;;;;;5097407;28;20296;-76
2021/06/30 06:34:28;;;;;;;0.98;0.57;;;17.90;99.90;;;;;;5097252;28;20202;-76
2021/06/30 06:36:55;;;;;;;0.90;0.60;;;17.90;99.90;;;;;;5097806;28;20309;-76
2021/06/30 06:39:23;;;;;;;0.70;0.70;;;18.00;99.90;;;;;;5097647;28;20287;-76
2021/06/30 06:41:50;;;;;;;1.67;0.80;;;18.00;99.90;;;;;;5097107;28;20293;-76
2021/06/30 06:44:17;;;;;;;0.57;0.50;;;18.10;99.90;;;;;;5097822;28;20301;-76
2021/06/30 06:46:44;;;;;;;0.52;0.52;;;18.10;99.90;;;;;;5097597;28;20225;-77
2021/06/30 06:49:11;;;;;;;0.52;0.52;;;18.10;99.90;;;;;;5097343;28;20555;-77
2021/06/30 06:51:40;;;;;;;0.50;0.50;;;18.20;99.90;;;;;;5097158;28;20589;-76
2021/06/30 06:54:08;;;;;;;0.45;0.45;;;18.40;99.90;;;;;;5097225;28;20293;-77
2021/06/30 06:56:36;;;;;;;2.53;1.63;;;18.40;99.90;;;;;;5097188;28;20219;-77
2021/06/30 06:59:03;;;;;;;0.40;0.40;;;18.50;99.90;;;;;;5097582;28;20205;-76
2021/06/30 07:01:30;;;;;;;0.68;0.68;;;18.50;99.90;;;;;;5096815;28;20198;-76
2021/06/30 07:03:57;;;;;;;0.52;0.52;;;18.60;99.90;;;;;;5097714;28;20289;-77
2021/06/30 07:06:24;;;;;;;0.50;0.50;;;18.80;99.90;;;;;;5097181;28;20228;-76
2021/06/30 07:08:52;;;;;;;0.60;0.60;;;18.90;99.90;;;;;;5098605;28;20705;-76
2021/06/30 07:11:19;;;;;;;0.60;0.60;;;19.10;99.90;;;;;;5098984;28;20203;-76
2021/06/30 07:13:47;;;;;;;0.50;0.50;;;19.20;99.90;;;;;;5098764;28;20204;-76
2021/06/30 07:16:14;;;;;;;0.85;0.85;;;19.30;99.90;;;;;;5098439;28;20224;-77
2021/06/30 07:18:41;;;;;;;0.63;0.50;;;19.40;99.90;;;;;;5097812;28;20264;-77
2021/06/30 07:21:09;;;;;;;0.47;0.40;;;19.40;99.90;;;;;;5093825;28;20217;-77
2021/06/30 07:23:37;;;;;;;0.50;0.50;;;19.30;99.90;;;;;;5092196;28;20458;-76
2021/06/30 07:26:05;;;;;;;0.87;0.50;;;19.30;99.90;;;;;;5100481;28;20504;-78
2021/06/30 07:28:32;;;;;;;0.90;0.90;;;19.40;99.90;;;;;;5100303;28;20515;-77
2021/06/30 07:30:59;;;;;;;2.57;1.60;;;19.50;99.90;;;;;;5100941;28;20501;-78
2021/06/30 07:33:26;;;;;;;0.60;0.50;;;19.60;99.90;;;;;;5099454;28;20488;-78
2021/06/30 07:35:53;;;;;;;0.63;0.63;;;19.70;99.90;;;;;;5099396;28;20525;-77
2021/06/30 07:38:20;;;;;;;0.40;0.40;;;19.90;99.90;;;;;;5099174;28;20525;-77
2021/06/30 07:40:47;;;;;;;0.47;0.40;;;20.10;99.90;;;;;;5097008;28;20478;-77
2021/06/30 07:43:15;;;;;;;0.43;0.43;;;20.00;99.90;;;;;;5097767;28;20533;-77
2021/06/30 07:45:42;;;;;;;0.57;0.43;;;20.10;99.90;;;;;;5098601;28;20465;-77
2021/06/30 07:48:09;;;;;;;1.13;0.80;;;20.30;99.90;;;;;;5098107;28;20484;-77
2021/06/30 07:50:36;;;;;;;0.60;0.50;;;20.50;99.90;;;;;;5094459;28;20442;-75
2021/06/30 07:53:03;;;;;;;0.67;0.67;;;20.60;99.90;;;;;;5094327;28;20447;-75
2021/06/30 07:55:30;;;;;;;0.87;0.70;;;20.40;99.90;;;;;;5093972;28;20880;-75
2021/06/30 07:57:56;;;;;;;1.07;0.90;;;20.30;99.90;;;;;;5094384;28;20486;-75
2021/06/30 08:00:25;;;;;;;2.27;1.07;;;20.20;99.90;;;;;;5094318;28;20537;-76
2021/06/30 08:02:51;;;;;;;0.90;0.43;;;20.20;99.90;;;;;;5094411;28;20879;-76
2021/06/30 08:05:18;;;;;;;3.20;1.00;;;20.20;99.90;;;;;;5094581;28;20446;-75
2021/06/30 08:07:45;;;;;;;1.00;0.60;;;20.20;99.90;;;;;;5093946;28;20579;-76
2021/06/30 08:10:12;;;;;;;3.20;0.60;;;20.30;99.90;;;;;;5094557;28;20450;-77
2021/06/30 08:12:39;;;;;;;1.77;1.10;;;20.20;99.90;;;;;;5098555;28;20470;-77
2021/06/30 08:15:08;;;;;;;2.00;0.90;;;20.20;99.90;;;;;;5099190;28;20530;-76
2021/06/30 08:17:36;;;;;;;0.40;0.40;;;20.30;99.90;;;;;;5097962;28;20463;-76
2021/06/30 08:20:04;;;;;;;0.40;0.40;;;20.30;99.90;;;;;;5099289;28;20514;-76
2021/06/30 08:22:31;;;;;;;0.40;0.40;;;20.30;99.90;;;;;;5099231;28;20442;-77
2021/06/30 08:24:58;;;;;;;0.40;0.40;;;20.10;99.90;;;;;;5099116;28;20451;-77
2021/06/30 08:27:25;;;;;;;0.73;0.50;;;20.00;99.90;;;;;;5098998;28;20482;-77
2021/06/30 08:29:52;;;;;;;7.70;1.60;;;19.80;99.90;;;;;;5099061;28;20528;-77
2021/06/30 08:32:19;;;;;;;1.17;0.47;;;19.70;99.90;;;;;;5099156;28;20495;-76
2021/06/30 08:34:47;;;;;;;0.57;0.47;;;20.20;99.90;;;;;;5099338;28;20444;-76
2021/06/30 08:37:13;;;;;;;0.40;0.30;;;21.30;99.90;;;;;;5098874;28;20555;-77
2021/06/30 08:39:40;;;;;;;0.30;0.27;;;22.40;99.40;;;;;;5099006;28;20446;-77
2021/06/30 08:42:07;;;;;;;0.70;0.40;;;23.40;97.10;;;;;;5098326;28;20541;-76
2021/06/30 08:44:35;;;;;;;0.60;0.60;;;23.60;95.50;;;;;;5098521;28;20451;-76
2021/06/30 08:47:02;;;;;;;0.30;0.30;;;23.90;95.20;;;;;;5099054;28;20474;-77
2021/06/30 08:49:29;;;;;;;0.50;0.50;;;24.20;93.00;;;;;;5098774;28;20507;-77
2021/06/30 08:51:58;;;;;;;0.50;0.50;;;23.60;94.50;;;;;;5097674;28;20495;-77
2021/06/30 08:54:26;;;;;;;0.40;0.40;;;23.00;94.90;;;;;;5099297;28;20527;-77
2021/06/30 08:56:55;;;;;;;0.40;0.40;;;22.40;95.50;;;;;;5099076;28;20539;-77
2021/06/30 08:59:22;;;;;;;0.40;0.40;;;21.90;96.80;;;;;;5098879;28;20483;-76
2021/06/30 09:01:49;;;;;;;0.50;0.50;;;21.40;96.90;;;;;;5098965;28;20450;-76
2021/06/30 09:04:16;;;;;;;0.50;0.50;;;21.10;97.60;;;;;;5100006;28;20940;-76
2021/06/30 09:06:43;;;;;;;0.53;0.50;;;20.90;98.70;;;;;;5098677;28;20549;-76
2021/06/30 09:09:13;;;;;;;0.70;0.50;;;21.30;99.50;;;;;;5098385;28;20522;-76
2021/06/30 09:11:42;;;;;;;0.80;0.80;;;21.00;99.60;;;;;;5099484;28;20798;-76
2021/06/30 09:14:22;;;;;;;0.40;0.30;;;20.70;99.90;;;;;;5099633;28;20951;-77
2021/06/30 09:17:06;;;;;;;0.60;0.50;;;20.50;99.90;;;;;;5099196;28;20527;-76
2021/06/30 09:19:48;;;;;;;0.60;0.60;;;20.30;99.90;;;;;;5099232;28;20537;-77
2021/06/30 09:22:16;;;;;;;0.97;0.50;;;20.30;99.90;;;;;;5098919;28;20475;-77
2021/06/30 09:24:45;;;;;;;0.50;0.50;;;20.30;99.90;;;;;;5099539;28;20446;-77
2021/06/30 09:27:14;;;;;;;0.50;0.50;;;20.50;99.90;;;;;;5099346;28;20502;-77
2021/06/30 09:29:42;;;;;;;0.40;0.40;;;20.70;99.90;;;;;;5098902;28;20442;-76
2021/06/30 09:32:11;;;;;;;0.50;0.50;;;20.60;99.90;;;;;;5098426;28;20837;-77
2021/06/30 09:34:38;;;;;;;0.47;0.30;;;20.60;99.90;;;;;;5099060;28;20553;-77
2021/06/30 09:37:07;;;;;;;0.60;0.40;;;20.60;99.90;;;;;;5098639;28;21030;-76
2021/06/30 09:39:38;;;;;;;0.50;0.50;;;20.60;99.90;;;;;;5099120;28;20437;-77
2021/06/30 09:42:08;;;;;;;0.60;0.60;;;20.90;99.70;;;;;;5097307;28;20480;-76
2021/06/30 09:44:35;;;;;;;0.40;0.40;;;22.50;96.60;;;;;;5098851;28;20452;-76
2021/06/30 09:47:03;;;;;;;0.80;0.50;;;22.70;95.60;;;;;;5098974;28;20472;-76
2021/06/30 09:49:30;;;;;;;0.50;0.30;;;22.50;95.20;;;;;;5098204;28;20474;-77
2021/06/30 09:52:08;;;;;;;0.50;0.50;;;22.20;94.90;;;;;;5098035;28;20450;-76
2021/06/30 09:54:35;;;;;;;0.40;0.40;;;22.50;96.30;;;;;;5098385;28;20494;-77
2021/06/30 09:57:07;;;;;;;0.40;0.40;;;23.30;95.00;;;;;;5098399;28;20499;-76
2021/06/30 09:59:37;;;;;;;0.50;0.50;;;23.20;92.40;;;;;;5100089;28;20447;-76
2021/06/30 10:02:06;;;;;;;0.47;0.47;;;22.50;95.40;;;;;;5101285;28;20448;-76
2021/06/30 10:04:35;;;;;;;0.40;0.40;;;21.60;97.40;;;;;;5100975;28;20443;-75
2021/06/30 10:07:05;;;;;;;0.30;0.20;;;20.80;99.20;;;;;;5100831;28;20473;-76
2021/06/30 10:09:33;;;;;;;0.50;0.40;;;20.30;99.90;;;;;;5100793;28;20573;-76
2021/06/30 10:12:07;;;;;;;0.47;0.30;;;20.40;99.90;;;;;;5101150;28;20530;-76
2021/06/30 10:14:34;;;;;;;0.40;0.40;;;20.70;99.90;;;;;;5100965;28;20454;-76
2021/06/30 10:17:02;;;;;;;0.40;0.40;;;21.00;99.90;;;;;;5101107;28;20555;-76
2021/06/30 10:19:30;;;;;;;0.90;0.83;;;22.20;99.90;;;;;;5100048;28;20517;-76
2021/06/30 10:21:58;;;;;;;0.50;0.50;;;23.40;97.60;;;;;;5100915;28;20460;-77
2021/06/30 10:24:25;;;;;;;0.50;0.50;;;23.60;96.10;;;;;;5101703;28;20790;-76
2021/06/30 10:26:52;;;;;;;0.37;0.37;;;23.70;95.30;;;;;;5101273;28;20530;-76
2021/06/30 10:29:25;;;;;;;0.43;0.40;;;24.00;92.40;;;;;;5101959;28;21060;-77
2021/06/30 10:31:55;;;;;;;3.33;2.00;;;24.80;93.60;;;;;;5099975;28;20542;-77
2021/06/30 10:34:36;;;;;;;2.30;1.83;;;25.20;91.30;;;;;;5100137;28;20472;-76
2021/06/30 10:37:04;;;;;;;0.40;0.40;;;25.30;90.50;;;;;;5102356;28;20525;-77
2021/06/30 10:39:43;;;;;;;0.50;0.40;;;24.90;87.70;;;;;;5101955;28;20443;-77
2021/06/30 10:42:18;;;;;;;2.60;0.60;;;24.30;85.60;;;;;;5102378;28;20541;-77
2021/06/30 10:44:49;;;;;;;0.60;0.60;;;23.70;87.50;;;;;;5101802;28;20527;-77
2021/06/30 10:47:39;;;;;;;0.53;0.50;;;22.80;89.00;;;;;;5102751;28;20886;-77
2021/06/30 10:50:25;;;;;;;1.03;0.50;;;22.20;90.40;;;;;;5102730;28;20439;-77
2021/06/30 10:52:54;;;;;;;0.50;0.50;;;21.80;92.70;;;;;;5103060;28;20439;-77
2021/06/30 10:55:49;;;;;;;0.77;0.77;;;21.90;93.30;;;;;;5102143;28;20475;-76
2021/06/30 10:58:17;;;;;;;0.50;0.50;;;21.80;93.00;;;;;;5102638;28;20425;-76
2021/06/30 11:00:47;;;;;;;0.50;0.50;;;21.70;92.40;;;;;;5101257;28;20439;-77
2021/06/30 11:03:29;;;;;;;0.50;0.50;;;21.50;91.80;;;;;;5100146;28;20443;-76
2021/06/30 11:06:17;;;;;;;0.50;0.50;;;21.10;93.10;;;;;;5099328;28;20466;-76
2021/06/30 11:08:46;;;;;;;0.50;0.50;;;20.80;93.20;;;;;;5098759;28;20463;-76
2021/06/30 11:11:15;;;;;;;0.67;0.67;;;20.50;95.20;;;;;;5097070;28;20473;-76
2021/06/30 11:14:06;;;;;;;0.60;0.60;;;20.00;97.30;;;;;;5097961;28;20796;-76
2021/06/30 11:16:54;;;;;;;1.17;0.60;;;19.80;98.20;;;;;;5082708;28;20473;-76
2021/06/30 11:19:41;;;;;;;0.60;0.60;;;19.80;99.90;;;;;;5098159;28;20435;-76
2021/06/30 11:22:09;;;;;;;0.60;0.60;;;19.80;98.80;;;;;;5098704;28;20442;-76
2021/06/30 11:24:47;;;;;;;0.63;0.63;;;19.70;99.80;;;;;;5099622;28;20437;-76
2021/06/30 11:27:43;;;;;;;0.60;0.60;;;19.80;99.90;;;;;;5099869;28;20462;-76
2021/06/30 11:30:11;;;;;;;0.60;0.60;;;19.90;99.90;;;;;;5100215;28;20444;-76
2021/06/30 11:32:50;;;;;;;0.60;0.60;;;20.00;99.90;;;;;;5100947;28;20450;-76
2021/06/30 11:35:32;;;;;;;0.90;0.73;;;20.10;99.90;;;;;;5100340;28;20508;-76
2021/06/30 11:38:12;;;;;;;1.17;0.70;;;20.20;99.90;;;;;;5100227;28;20430;-76
2021/06/30 11:40:44;;;;;;;0.67;0.60;;;20.40;98.70;;;;;;5099936;28;20442;-77
2021/06/30 11:43:13;;;;;;;0.70;0.70;;;20.30;99.80;;;;;;5101538;28;20812;-76
2021/06/30 11:45:40;;;;;;;0.77;0.70;;;20.50;99.50;;;;;;5100265;28;20866;-76
2021/06/30 11:48:10;;;;;;;0.67;0.67;;;20.40;98.40;;;;;;5100442;28;20493;-76
2021/06/30 11:51:05;;;;;;;0.63;0.50;;;20.50;98.50;;;;;;5100106;28;20451;-76
2021/06/30 11:53:38;;;;;;;0.80;0.80;;;20.50;97.90;;;;;;5064607;28;20870;-77
2021/06/30 11:56:07;;;;;;;0.60;0.60;;;20.60;98.90;;;;;;5100477;28;20813;-76
2021/06/30 11:58:47;;;;;;;0.70;0.70;;;20.50;99.90;;;;;;5101039;28;20837;-76
2021/06/30 12:01:27;;;;;;;0.40;0.40;;;20.50;99.20;;;;;;5098080;28;20446;-76
2021/06/30 12:04:13;;;;;;;0.57;0.57;;;20.00;99.90;;;;;;5097814;28;20453;-76
2021/06/30 12:06:40;;;;;;;1.25;0.52;;;19.30;99.90;;;;;;5096546;28;21036;-76
2021/06/30 12:09:10;;;;;;;1.25;0.63;;;18.80;99.90;;;;;;5096979;28;20224;-76
2021/06/30 12:11:39;;;;;;;1.35;0.70;;;18.60;99.90;;;;;;5095821;28;20636;-76
2021/06/30 12:14:08;;;;;;;1.40;1.30;;;18.60;99.90;;;;;;5096750;28;20211;-76
2021/06/30 12:16:59;;;;;;;0.90;0.90;;;18.80;99.90;;;;;;5096615;28;20640;-76
2021/06/30 12:19:39;;;;;;;0.70;0.65;;;19.10;99.90;;;;;;5093451;28;20202;-76
2021/06/30 12:22:34;;;;;;;1.13;1.03;;;19.30;99.90;;;;;;5095666;28;20203;-76
2021/06/30 12:25:04;;;;;;;0.90;0.90;;;19.50;99.90;;;;;;5060810;28;20458;-76
2021/06/30 12:27:34;;;;;;;0.80;0.80;;;19.70;99.90;;;;;;5097101;28;20453;-76
2021/06/30 12:30:04;;;;;;;1.20;0.70;;;19.80;99.90;;;;;;5097422;28;20877;-75
2021/06/30 12:32:31;;;;;;;0.90;0.90;;;20.00;99.90;;;;;;5096758;28;20588;-76
2021/06/30 12:35:02;;;;;;;1.63;1.47;;;20.10;99.90;;;;;;5096141;28;20521;-76
2021/06/30 12:37:29;;;;;;;2.30;1.20;;;20.10;99.90;;;;;;5096005;28;20557;-76
2021/06/30 12:39:59;;;;;;;0.80;0.80;;;20.20;99.90;;;;;;5096043;28;20450;-76
2021/06/30 12:42:44;;;;;;;0.80;0.80;;;20.20;99.90;;;;;;5095365;28;20541;-76
2021/06/30 12:45:13;;;;;;;0.80;0.80;;;20.20;99.90;;;;;;5096307;28;20968;-76
2021/06/30 12:47:53;;;;;;;0.70;0.70;;;20.20;99.90;;;;;;5096512;28;20463;-76
2021/06/30 12:50:32;;;;;;;0.80;0.80;;;20.30;99.90;;;;;;5095897;28;21048;-76
2021/06/30 12:53:05;;;;;;;0.80;0.80;;;20.20;99.90;;;;;;5096659;28;20952;-76
2021/06/30 12:55:53;;;;;;;0.90;0.90;;;20.30;99.90;;;;;;5096328;28;20448;-76
2021/06/30 12:58:21;;;;;;;0.70;0.70;;;20.30;99.90;;;;;;5096876;28;20454;-75